KHLX

Twin County Airport

Galax Hillsville, Virginia, USA
METAR KHLX 250055Z AUTO 00000KT 10SM CLR 19/16 A3023 RMK AO2 T01900160
Observed Flight Rules
May-25 @ 00:55 UTC (20 minutes ago) Visual Flight Rules
Visibility Clouds
10 miles
  • Clear skies
Temperatures Readings
Current 19°C / 66°F
Dewpoint 16°C / 61°F
Humidity 83%
Altimeter 30.23" Hg
Pressure 1024 hPa
Elevation 834
METAR KHLX 250055Z AUTO 00000KT 10SM CLR 19/16 A3023 RMK AO2 T01900160
Observed Flight Rules
May-25 @ 00:55 UTC
(20 minutes ago)
VFR
Clouds
  • Clear skies
Temperature Dewpoint
19°C / 66°F 16°C / 61°F
Humidity Altimeter Pressure
83% 30.23" Hg 1024 hPa